createdAt,value
2023-07-24T00:03:37.287Z,51.76
2023-07-24T00:08:40.875Z,51.58
2023-07-24T00:13:42.604Z,51.15
2023-07-24T00:18:44.284Z,51.43
2023-07-24T00:23:46.550Z,52.28
2023-07-24T00:28:48.338Z,53.15
2023-07-24T00:33:49.993Z,53.28
2023-07-24T00:38:51.714Z,53.12
2023-07-24T00:43:53.515Z,53.33
2023-07-24T00:48:55.253Z,53.34
2023-07-24T00:53:57.963Z,53.43
2023-07-24T00:59:00.424Z,53.29
2023-07-24T01:04:02.480Z,53.43
2023-07-24T01:09:04.219Z,53.35
2023-07-24T01:14:05.838Z,53.87
2023-07-24T01:19:13.405Z,53.94
2023-07-24T01:24:33.972Z,54.84
2023-07-24T01:29:35.620Z,54.93
2023-07-24T01:34:37.711Z,55.92
2023-07-24T01:39:41.367Z,56.14
2023-07-24T01:44:43.305Z,56.79
2023-07-24T01:49:44.997Z,57.87
2023-07-24T01:54:47.131Z,57.74
2023-07-24T01:59:49.919Z,57.94
2023-07-24T02:04:51.901Z,60.59
2023-07-24T02:09:53.551Z,60.58
2023-07-24T02:14:56.428Z,60.78
2023-07-24T02:19:58.075Z,61.46
2023-07-24T02:25:00.055Z,61.94
2023-07-24T02:30:02.591Z,61.71
2023-07-24T02:35:04.493Z,61.73
2023-07-24T02:40:06.505Z,62.43
2023-07-24T02:45:12.316Z,63.00
2023-07-24T02:50:14.239Z,62.74
2023-07-24T02:55:16.189Z,63.48
2023-07-24T03:00:18.199Z,63.15
2023-07-24T03:05:20.288Z,62.33
2023-07-24T03:10:21.942Z,61.93
2023-07-24T03:15:24.011Z,60.98
2023-07-24T03:20:25.649Z,61.74
2023-07-24T03:25:27.598Z,67.73
2023-07-24T03:30:29.245Z,68.93
2023-07-24T03:35:30.975Z,69.98
2023-07-24T03:40:32.851Z,72.87
2023-07-24T03:45:34.567Z,76.75
2023-07-24T03:50:36.212Z,79.24
2023-07-24T03:55:38.094Z,79.40
2023-07-24T04:00:39.857Z,79.48
2023-07-24T04:05:41.529Z,79.79
2023-07-24T04:10:43.191Z,80.32
2023-07-24T04:15:45.650Z,80.83
2023-07-24T04:20:47.439Z,80.50
2023-07-24T04:25:52.791Z,80.17
2023-07-24T04:30:54.423Z,80.48
2023-07-24T04:35:56.699Z,81.13
2023-07-24T04:41:01.043Z,80.65
2023-07-24T04:46:02.849Z,80.55
2023-07-24T04:51:04.511Z,81.29
2023-07-24T04:56:08.160Z,81.92
2023-07-24T05:01:10.612Z,81.04
2023-07-24T05:06:12.389Z,81.69
2023-07-24T05:11:14.220Z,82.44
2023-07-24T05:16:16.148Z,81.66
2023-07-24T05:21:17.853Z,82.05
2023-07-24T05:26:19.914Z,82.00
2023-07-24T05:31:22.741Z,80.71
2023-07-24T05:36:24.486Z,81.11
2023-07-24T05:41:26.223Z,76.53
2023-07-24T05:46:31.683Z,74.45
2023-07-24T05:51:33.627Z,74.08
2023-07-24T05:56:35.355Z,75.35
2023-07-24T06:01:37.195Z,77.77
2023-07-24T06:06:38.900Z,77.79
2023-07-24T06:11:40.530Z,78.34
2023-07-24T06:16:42.392Z,79.30
2023-07-24T06:21:44.106Z,80.38
2023-07-24T06:26:46.391Z,80.84
2023-07-24T06:31:48.215Z,81.13
2023-07-24T06:36:50.150Z,80.87
2023-07-24T06:41:55.642Z,80.39
2023-07-24T06:46:57.824Z,80.14
2023-07-24T06:51:59.648Z,80.07
2023-07-24T06:57:01.319Z,80.16
2023-07-24T07:02:03.212Z,79.91
2023-07-24T07:07:05.130Z,79.55
2023-07-24T07:12:07.142Z,79.56
2023-07-24T07:17:08.902Z,79.29
2023-07-24T07:22:10.573Z,82.78
2023-07-24T07:27:12.145Z,84.59
2023-07-24T07:32:13.825Z,85.33
2023-07-24T07:37:15.491Z,85.52
2023-07-24T07:42:18.733Z,85.96
2023-07-24T07:47:20.866Z,86.29
2023-07-24T07:52:23.542Z,86.55
2023-07-24T07:57:25.681Z,87.14
2023-07-24T08:02:27.968Z,88.09
2023-07-24T08:07:31.684Z,87.75
2023-07-24T08:12:33.703Z,87.33
2023-07-24T08:17:35.502Z,87.68
2023-07-24T08:22:37.274Z,88.22
2023-07-24T08:27:54.485Z,87.99
2023-07-24T08:33:03.444Z,87.95
2023-07-24T08:38:05.643Z,86.80
2023-07-24T08:43:07.950Z,85.93
2023-07-24T08:48:10.939Z,87.66
2023-07-24T08:53:13.546Z,89.47
2023-07-24T08:58:15.322Z,90.47
2023-07-24T09:03:18.475Z,91.53
2023-07-24T09:09:04.071Z,92.06
2023-07-24T09:19:26.662Z,93.03
2023-07-24T09:24:28.766Z,90.88
2023-07-24T09:29:33.972Z,90.58
2023-07-24T09:34:42.703Z,89.86
2023-07-24T09:39:47.452Z,86.56
2023-07-24T09:44:49.254Z,84.48
2023-07-24T09:49:51.691Z,84.36
2023-07-24T09:55:06.072Z,82.64
2023-07-24T10:00:08.995Z,79.94
2023-07-24T10:05:12.252Z,78.31
2023-07-24T10:10:15.221Z,78.11
2023-07-24T10:15:17.642Z,78.76
2023-07-24T10:20:19.466Z,78.32
2023-07-24T10:25:29.728Z,77.29
2023-07-24T10:30:34.660Z,78.20
2023-07-24T10:35:41.336Z,78.83
2023-07-24T10:40:44.193Z,78.61
2023-07-24T10:45:50.686Z,77.54
2023-07-24T10:50:54.819Z,77.78
2023-07-24T10:55:57.098Z,77.25
2023-07-24T11:01:00.084Z,77.33
2023-07-24T11:06:03.178Z,76.37
2023-07-24T11:11:05.527Z,74.22
2023-07-24T11:16:11.637Z,73.60
2023-07-24T11:21:13.845Z,73.38
2023-07-24T11:26:16.352Z,73.83
2023-07-24T11:31:21.140Z,73.93
2023-07-24T11:36:23.439Z,71.76
2023-07-24T11:41:26.942Z,71.56
2023-07-24T11:46:29.760Z,71.66
2023-07-24T11:51:34.608Z,71.03
2023-07-24T11:56:37.395Z,70.77
2023-07-24T12:01:39.235Z,69.31
2023-07-24T12:06:41.167Z,68.87
2023-07-24T12:11:45.491Z,70.02
2023-07-24T12:16:48.008Z,70.86
2023-07-24T12:21:50.670Z,74.10
2023-07-24T12:26:52.461Z,77.13
2023-07-24T12:31:55.527Z,81.37
2023-07-24T12:36:57.430Z,84.69
2023-07-24T12:41:59.393Z,82.48
2023-07-24T12:47:01.108Z,85.04
2023-07-24T12:52:03.742Z,87.42
2023-07-24T12:57:05.814Z,88.95
2023-07-24T13:02:07.641Z,89.91
2023-07-24T13:07:09.602Z,88.03
2023-07-24T13:12:11.646Z,88.89
2023-07-24T13:17:13.464Z,87.61
2023-07-24T13:22:15.136Z,87.72
2023-07-24T13:27:16.884Z,86.48
2023-07-24T13:32:19.103Z,85.82
2023-07-24T13:37:20.892Z,85.57
2023-07-24T13:42:22.965Z,84.11
2023-07-24T13:47:24.706Z,82.99
2023-07-24T13:52:26.436Z,82.79
2023-07-24T13:57:28.791Z,81.97
2023-07-24T14:02:30.650Z,81.77
2023-07-24T14:07:32.564Z,81.47
2023-07-24T14:12:34.232Z,81.52
2023-07-24T14:17:36.426Z,81.54
2023-07-24T14:22:38.924Z,82.45
2023-07-24T14:27:40.724Z,81.38
2023-07-24T14:32:42.654Z,81.27
2023-07-24T14:37:44.543Z,79.95
2023-07-24T14:42:46.169Z,79.80
2023-07-24T14:47:49.877Z,75.89
2023-07-24T14:52:52.500Z,75.39
2023-07-24T14:57:54.489Z,75.73
2023-07-24T15:02:56.220Z,76.22
2023-07-24T15:07:57.938Z,73.52
2023-07-24T15:12:59.749Z,73.04
2023-07-24T15:18:01.599Z,73.38
2023-07-24T15:23:03.227Z,71.43
2023-07-24T15:28:04.971Z,72.01
2023-07-24T15:33:06.683Z,72.60
2023-07-24T15:38:08.885Z,72.89
2023-07-24T15:43:11.056Z,74.68
2023-07-24T15:48:12.653Z,74.30
2023-07-24T15:53:14.434Z,77.07
2023-07-24T15:58:16.141Z,77.72
2023-07-24T16:03:18.228Z,78.28
2023-07-24T16:08:20.136Z,78.60
2023-07-24T16:13:22.026Z,79.38
2023-07-24T16:18:24.985Z,81.40
2023-07-24T16:23:26.897Z,80.60
2023-07-24T16:28:28.571Z,80.44
2023-07-24T16:33:31.329Z,80.59
2023-07-24T16:38:33.450Z,81.05
2023-07-24T16:43:38.823Z,81.65
2023-07-24T16:48:42.305Z,82.78
2023-07-24T16:53:44.080Z,83.61
2023-07-24T16:58:45.688Z,84.18
2023-07-24T17:03:47.388Z,84.18
2023-07-24T17:08:49.562Z,83.20
2023-07-24T17:13:51.261Z,85.06
2023-07-24T17:18:57.102Z,85.24
2023-07-24T17:23:58.797Z,83.40
2023-07-24T17:29:03.911Z,82.19
2023-07-24T17:34:05.750Z,80.10
2023-07-24T17:39:07.964Z,80.12
2023-07-24T17:44:10.114Z,79.97
2023-07-24T17:49:11.746Z,80.58
2023-07-24T17:54:14.098Z,80.82
2023-07-24T17:59:16.086Z,81.13
2023-07-24T18:04:17.702Z,81.98
2023-07-24T18:09:21.278Z,82.23
2023-07-24T18:14:23.983Z,82.33
2023-07-24T18:19:25.684Z,82.66
2023-07-24T18:24:27.570Z,82.32
2023-07-24T18:29:29.760Z,81.55
2023-07-24T18:34:31.474Z,81.38
2023-07-24T18:39:33.221Z,80.72
2023-07-24T18:44:35.069Z,79.95
2023-07-24T18:49:36.790Z,79.30
2023-07-24T18:54:39.701Z,78.80
2023-07-24T18:59:41.336Z,79.02
2023-07-24T19:04:43.240Z,78.72
2023-07-24T19:09:44.917Z,78.97
2023-07-24T19:14:46.610Z,78.74
2023-07-24T19:19:48.280Z,79.12
2023-07-24T19:24:50.013Z,79.46
2023-07-24T19:29:52.261Z,79.62
2023-07-24T19:34:53.953Z,79.61
2023-07-24T19:39:57.059Z,80.25
2023-07-24T19:45:00.000Z,80.18
2023-07-24T19:50:03.083Z,80.35
2023-07-24T19:55:06.198Z,80.56
2023-07-24T20:00:08.078Z,80.77
2023-07-24T20:05:09.984Z,81.10
2023-07-24T20:10:12.354Z,81.23
2023-07-24T20:15:17.045Z,81.33
2023-07-24T20:20:18.956Z,81.65
2023-07-24T20:25:20.625Z,81.81
2023-07-24T20:30:22.383Z,82.00
2023-07-24T20:35:24.352Z,82.29
2023-07-24T20:40:27.056Z,82.32
2023-07-24T20:45:29.172Z,82.11
2023-07-24T20:50:31.279Z,82.03
2023-07-24T20:55:33.434Z,82.10
2023-07-24T21:00:35.297Z,81.96
2023-07-24T21:05:38.338Z,81.51
2023-07-24T21:10:40.269Z,81.22
2023-07-24T21:15:44.785Z,81.05
2023-07-24T21:20:49.534Z,84.89
2023-07-24T21:25:54.067Z,86.10
2023-07-24T21:30:55.829Z,85.30
2023-07-24T21:36:01.181Z,85.40
2023-07-24T21:41:02.855Z,85.57
2023-07-24T21:46:04.617Z,85.51
2023-07-24T21:51:06.348Z,85.67
2023-07-24T21:56:07.998Z,85.93
2023-07-24T22:01:09.753Z,86.64
2023-07-24T22:06:11.476Z,86.44
2023-07-24T22:11:13.885Z,86.38
2023-07-24T22:16:15.660Z,85.66
2023-07-24T22:21:17.276Z,85.03
2023-07-24T22:26:19.489Z,85.03
2023-07-24T22:31:21.065Z,84.87
2023-07-24T22:36:22.875Z,84.87
2023-07-24T22:41:24.529Z,84.60
2023-07-24T22:46:26.359Z,84.19
2023-07-24T22:51:28.294Z,84.26
2023-07-24T22:56:30.160Z,83.85
2023-07-24T23:01:32.626Z,84.37
2023-07-24T23:06:34.749Z,83.99
2023-07-24T23:11:36.408Z,84.02
2023-07-24T23:16:38.313Z,84.42
2023-07-24T23:21:39.959Z,84.50
2023-07-24T23:26:41.884Z,84.50
2023-07-24T23:31:44.151Z,84.48
2023-07-24T23:36:46.092Z,84.89
2023-07-24T23:41:47.780Z,84.72
2023-07-24T23:46:49.394Z,84.38
2023-07-24T23:51:51.171Z,84.11
2023-07-24T23:56:52.846Z,84.00
